Time;durP1;ratioP1;P1;durP2;ratioP2;P2;SDS_P1;SDS_P2;PMS_P1;PMS_P2;Temp;Humidity;BMP_temperature;BMP_pressure;BME280_temperature;BME280_humidity;BME280_pressure;Samples;Min_cycle;Max_cycle;Signal;HPM_P1;HPM_P2
2022/09/19 00:02:18;;;;;;;;;;;18.40;80.40;;;;;;5113922;28;20372;-73
2022/09/19 00:04:45;;;;;;;;;;;18.40;79.70;;;;;;5114636;28;20353;-72
2022/09/19 00:07:12;;;;;;;;;;;18.40;76.60;;;;;;5114119;28;19908;-72
2022/09/19 00:09:38;;;;;;;;;;;18.50;76.80;;;;;;5110736;28;19955;-69
2022/09/19 00:12:05;;;;;;;;;;;18.40;75.60;;;;;;5092236;28;19911;-70
2022/09/19 00:14:33;;;;;;;;;;;18.50;76.70;;;;;;5093581;28;19914;-69
2022/09/19 00:17:01;;;;;;;;;;;18.50;75.30;;;;;;5093380;28;19930;-70
2022/09/19 00:19:28;;;;;;;;;;;18.50;75.00;;;;;;5097433;28;19915;-68
2022/09/19 00:21:56;;;;;;;;;;;18.60;74.70;;;;;;5112961;28;19924;-69
2022/09/19 00:27:09;;;;;;;;;;;18.50;74.80;;;;;;5113731;28;19918;-72
2022/09/19 00:29:36;;;;;;;;;;;18.50;74.80;;;;;;5113385;28;19908;-69
2022/09/19 00:32:07;;;;;;;;;;;18.60;74.70;;;;;;5113734;28;19915;-70
2022/09/19 00:34:35;;;;;;;;;;;18.50;73.70;;;;;;5113403;28;19912;-71
2022/09/19 00:37:01;;;;;;;;;;;18.60;74.50;;;;;;5112914;28;19916;-71
2022/09/19 00:39:28;;;;;;;;;;;18.70;73.60;;;;;;5107717;28;20398;-73
2022/09/19 00:41:54;;;;;;;;;;;18.80;71.00;;;;;;5113159;28;20018;-73
2022/09/19 00:44:24;;;;;;;;;;;18.90;70.80;;;;;;5110771;28;19919;-71
2022/09/19 00:46:54;;;;;;;;;;;19.00;69.20;;;;;;5111610;28;19908;-73
2022/09/19 00:49:21;;;;;;;;;;;19.00;69.30;;;;;;5111651;28;19931;-75
2022/09/19 00:51:49;;;;;;;;;;;19.10;68.50;;;;;;5111925;28;19965;-69
2022/09/19 00:54:35;;;;;;;;;;;19.20;69.10;;;;;;5111549;28;20375;-75
2022/09/19 00:57:03;;;;;;;;;;;19.30;68.30;;;;;;5112098;28;19912;-75
2022/09/19 00:59:33;;;;;;;;;;;19.40;68.40;;;;;;5112875;28;19907;-78
2022/09/19 01:02:04;;;;;;;;;;;19.60;68.40;;;;;;5095156;28;19959;-74
2022/09/19 01:04:35;;;;;;;;;;;19.70;68.30;;;;;;5112698;28;19908;-78
2022/09/19 01:07:21;;;;;;;;;;;19.80;68.40;;;;;;5112604;28;20364;-73
2022/09/19 01:09:50;;;;;;;;;;;19.90;67.70;;;;;;5111446;28;19908;-69
2022/09/19 01:12:23;;;;;;;;;;;19.80;68.50;;;;;;5112607;28;19908;-77
2022/09/19 01:15:06;;;;;;;;;;;19.70;68.60;;;;;;5111719;28;20031;-74
2022/09/19 01:17:45;;;;;;;;;;;19.70;68.90;;;;;;5093393;28;19971;-77
2022/09/19 01:20:32;;;;;;;;;;;19.70;68.40;;;;;;5111899;28;19926;-76
2022/09/19 01:22:59;;;;;;;;;;;19.50;68.40;;;;;;5060987;28;19919;-72
2022/09/19 01:25:31;;;;;;;;;;;19.50;68.40;;;;;;5112826;28;19908;-70
2022/09/19 01:28:06;;;;;;;;;;;19.60;67.60;;;;;;5112667;28;20010;-76
2022/09/19 01:30:33;;;;;;;;;;;19.60;68.20;;;;;;5111811;28;19915;-70
2022/09/19 01:33:03;;;;;;;;;;;19.80;68.10;;;;;;5112363;28;19947;-70
2022/09/19 01:35:37;;;;;;;;;;;20.00;67.90;;;;;;5111934;28;19953;-70
2022/09/19 01:38:22;;;;;;;;;;;20.10;68.00;;;;;;5112207;28;20275;-72
2022/09/19 01:40:49;;;;;;;;;;;20.30;67.10;;;;;;5112314;28;19936;-73
2022/09/19 01:43:18;;;;;;;;;;;20.50;67.30;;;;;;5112062;28;20268;-75
2022/09/19 01:45:45;;;;;;;;;;;20.70;66.30;;;;;;5112557;28;19908;-75
2022/09/19 01:48:19;;;;;;;;;;;20.50;66.20;;;;;;5112553;28;19915;-70
2022/09/19 01:50:46;;;;;;;;;;;20.50;67.10;;;;;;5112513;28;19930;-73
2022/09/19 01:53:22;;;;;;;;;;;20.50;67.20;;;;;;5112505;28;19908;-75
2022/09/19 01:55:51;;;;;;;;;;;20.70;66.10;;;;;;5112284;28;19911;-74
2022/09/19 02:03:37;;;;;;;;;;;21.50;65.60;;;;;;5068791;28;19924;-71
2022/09/19 02:06:12;;;;;;;;;;;21.70;65.20;;;;;;5051358;28;20011;-70
2022/09/19 02:08:59;;;;;;;;;;;21.80;64.90;;;;;;5051502;28;19920;-72
2022/09/19 02:11:27;;;;;;;;;;;21.70;64.90;;;;;;5051408;28;19970;-70
2022/09/19 02:13:56;;;;;;;;;;;21.90;64.50;;;;;;5051880;28;19909;-75
2022/09/19 02:16:30;;;;;;;;;;;22.00;65.00;;;;;;5051737;28;19913;-71
2022/09/19 02:19:13;;;;;;;;;;;22.10;64.70;;;;;;5064957;28;19912;-70
2022/09/19 02:21:42;;;;;;;;;;;22.30;64.80;;;;;;5071871;28;19909;-70
2022/09/19 02:24:13;;;;;;;;;;;22.50;63.70;;;;;;5056809;28;19913;-70
2022/09/19 02:26:41;;;;;;;;;;;22.50;63.50;;;;;;5051557;28;19909;-70
2022/09/19 02:29:09;;;;;;;;;;;22.70;63.30;;;;;;5051601;28;19909;-69
2022/09/19 02:31:37;;;;;;;;;;;22.80;62.40;;;;;;5051822;28;19916;-74
2022/09/19 02:34:06;;;;;;;;;;;23.10;64.10;;;;;;5051880;28;20046;-73
2022/09/19 02:36:42;;;;;;;;;;;23.40;61.40;;;;;;5051563;28;19917;-73
2022/09/19 02:39:14;;;;;;;;;;;23.60;60.90;;;;;;5058172;28;19909;-71
2022/09/19 02:42:01;;;;;;;;;;;24.00;60.60;;;;;;5071343;28;19912;-71
2022/09/19 02:44:47;;;;;;;;;;;24.20;59.50;;;;;;5070915;28;19912;-70
2022/09/19 02:47:21;;;;;;;;;;;24.40;60.70;;;;;;5074874;28;19912;-70
2022/09/19 02:49:50;;;;;;;;;;;25.10;59.20;;;;;;5075407;28;19917;-72
2022/09/19 02:52:22;;;;;;;;;;;25.70;59.20;;;;;;5074791;28;19909;-72
2022/09/19 02:54:52;;;;;;;;;;;25.50;57.30;;;;;;5074994;28;20360;-73
2022/09/19 02:57:20;;;;;;;;;;;25.20;58.10;;;;;;5074561;28;19924;-73
2022/09/19 02:59:48;;;;;;;;;;;25.30;57.90;;;;;;5056774;28;19908;-72
2022/09/19 03:02:21;;;;;;;;;;;25.60;56.80;;;;;;5074850;28;19913;-74
2022/09/19 03:04:52;;;;;;;;;;;26.30;56.70;;;;;;5074497;28;20383;-73
2022/09/19 03:07:27;;;;;;;;;;;27.20;54.90;;;;;;5075040;28;19909;-71
2022/09/19 03:10:04;;;;;;;;;;;27.70;54.10;;;;;;5074757;28;19991;-73
2022/09/19 03:12:39;;;;;;;;;;;28.30;55.10;;;;;;5074878;28;19909;-71
2022/09/19 03:15:06;;;;;;;;;;;29.00;52.60;;;;;;5074647;28;19908;-70
2022/09/19 03:17:36;;;;;;;;;;;29.40;51.90;;;;;;5074535;28;19923;-69
2022/09/19 03:20:03;;;;;;;;;;;29.50;51.90;;;;;;5074728;28;19962;-68
2022/09/19 03:22:31;;;;;;;;;;;29.90;51.70;;;;;;5074568;28;19997;-69
2022/09/19 03:25:02;;;;;;;;;;;29.80;51.80;;;;;;5074450;28;20129;-74
2022/09/19 03:27:28;;;;;;;;;;;30.20;51.40;;;;;;5074467;28;20001;-70
2022/09/19 03:29:55;;;;;;;;;;;30.50;51.30;;;;;;5056265;28;20399;-74
2022/09/19 03:32:26;;;;;;;;;;;30.60;49.10;;;;;;5074227;28;19908;-72
2022/09/19 03:34:55;;;;;;;;;;;30.60;50.00;;;;;;5073768;28;19909;-72
2022/09/19 03:37:23;;;;;;;;;;;30.70;48.30;;;;;;5073948;28;19916;-75
2022/09/19 03:39:49;;;;;;;;;;;30.70;49.60;;;;;;5073653;28;19908;-74
2022/09/19 03:42:17;;;;;;;;;;;30.80;48.80;;;;;;5073902;28;19920;-76
2022/09/19 03:44:44;;;;;;;;;;;30.80;48.50;;;;;;5055998;28;19909;-75
2022/09/19 03:47:11;;;;;;;;;;;30.80;48.80;;;;;;5074172;28;19909;-76
2022/09/19 03:49:37;;;;;;;;;;;31.10;48.50;;;;;;5074242;28;19915;-74
2022/09/19 03:52:04;;;;;;;;;;;31.00;47.90;;;;;;5055907;28;20278;-72
2022/09/19 03:54:31;;;;;;;;;;;31.20;48.60;;;;;;5074090;28;19951;-72
2022/09/19 03:56:58;;;;;;;;;;;31.00;47.60;;;;;;5073210;28;19971;-72
2022/09/19 03:59:25;;;;;;;;;;;31.20;49.40;;;;;;5073640;28;19912;-73
2022/09/19 04:01:54;;;;;;;;;;;31.30;47.50;;;;;;5073819;28;20891;-73
2022/09/19 04:04:21;;;;;;;;;;;31.20;48.70;;;;;;5073645;28;20015;-74
2022/09/19 04:06:48;;;;;;;;;;;31.20;46.30;;;;;;5073802;28;20339;-73
2022/09/19 04:09:14;;;;;;;;;;;31.20;47.40;;;;;;5073731;28;19912;-74
2022/09/19 04:11:41;;;;;;;;;;;30.70;46.70;;;;;;5073736;28;19916;-74
2022/09/19 04:14:09;;;;;;;;;;;30.90;48.90;;;;;;5073281;28;20349;-74
2022/09/19 04:16:35;;;;;;;;;;;31.30;47.70;;;;;;5073445;28;19971;-74
2022/09/19 04:19:05;;;;;;;;;;;31.30;47.40;;;;;;5073393;28;19977;-70
2022/09/19 04:21:31;;;;;;;;;;;30.70;46.50;;;;;;5073116;28;19956;-73
2022/09/19 04:23:58;;;;;;;;;;;30.70;46.70;;;;;;5073262;28;20030;-73
2022/09/19 04:26:25;;;;;;;;;;;30.90;47.30;;;;;;5072810;28;19999;-69
2022/09/19 04:28:52;;;;;;;;;;;31.40;47.00;;;;;;5072799;28;19931;-73
2022/09/19 04:31:18;;;;;;;;;;;31.20;46.60;;;;;;5072888;28;19908;-74
2022/09/19 04:33:45;;;;;;;;;;;30.20;46.30;;;;;;5072939;28;19913;-76
2022/09/19 04:36:13;;;;;;;;;;;29.50;47.20;;;;;;5073079;28;19909;-69
2022/09/19 04:38:40;;;;;;;;;;;28.90;48.00;;;;;;5073167;28;20019;-71
2022/09/19 04:41:08;;;;;;;;;;;28.20;48.90;;;;;;5054899;28;19919;-73
2022/09/19 04:43:36;;;;;;;;;;;27.40;49.30;;;;;;5072631;28;19912;-72
2022/09/19 04:46:06;;;;;;;;;;;26.80;51.00;;;;;;5072370;28;19959;-72
2022/09/19 04:48:32;;;;;;;;;;;26.40;50.80;;;;;;5072816;28;20011;-76
2022/09/19 04:50:59;;;;;;;;;;;26.60;50.60;;;;;;5072645;28;19908;-72
2022/09/19 04:53:27;;;;;;;;;;;26.90;49.90;;;;;;5071088;28;19908;-75
2022/09/19 04:55:54;;;;;;;;;;;27.50;51.80;;;;;;5070490;28;19909;-73
2022/09/19 04:58:21;;;;;;;;;;;28.60;48.80;;;;;;5070947;28;19917;-76
2022/09/19 05:00:53;;;;;;;;;;;28.80;49.00;;;;;;5070830;28;19962;-75
2022/09/19 05:03:20;;;;;;;;;;;29.00;49.00;;;;;;5070380;28;19916;-73
2022/09/19 05:05:51;;;;;;;;;;;29.40;46.20;;;;;;5070941;28;20424;-75
2022/09/19 05:08:19;;;;;;;;;;;30.00;48.00;;;;;;5062908;28;19909;-68
2022/09/19 05:10:46;;;;;;;;;;;30.80;46.00;;;;;;5032094;28;19919;-73
2022/09/19 05:13:13;;;;;;;;;;;31.30;44.20;;;;;;5051503;28;19913;-75
2022/09/19 05:15:41;;;;;;;;;;;31.80;43.60;;;;;;5051994;28;20023;-76
2022/09/19 05:18:11;;;;;;;;;;;32.10;43.10;;;;;;5051669;28;19924;-75
2022/09/19 05:20:47;;;;;;;;;;;32.30;43.80;;;;;;5052097;28;19909;-73
2022/09/19 05:23:15;;;;;;;;;;;32.40;43.60;;;;;;5034026;28;19935;-77
2022/09/19 05:25:42;;;;;;;;;;;32.40;43.60;;;;;;5051506;28;20318;-76
2022/09/19 05:28:09;;;;;;;;;;;32.70;43.60;;;;;;5051710;28;19909;-76
2022/09/19 05:30:38;;;;;;;;;;;32.70;43.00;;;;;;5051753;28;19966;-79
2022/09/19 05:33:06;;;;;;;;;;;33.00;44.10;;;;;;5053337;28;19909;-74
2022/09/19 05:35:33;;;;;;;;;;;33.20;44.40;;;;;;5052133;28;19909;-77
2022/09/19 05:37:59;;;;;;;;;;;32.90;45.80;;;;;;5051989;28;20015;-79
2022/09/19 05:40:26;;;;;;;;;;;32.70;47.70;;;;;;5052042;28;20368;-76
2022/09/19 05:43:03;;;;;;;;;;;32.50;46.70;;;;;;5051755;28;19908;-72
2022/09/19 05:45:31;;;;;;;;;;;32.20;48.00;;;;;;5051511;28;19909;-73
2022/09/19 05:48:02;;;;;;;;;;;31.60;48.70;;;;;;5055134;28;19909;-71
2022/09/19 05:50:29;;;;;;;;;;;30.80;50.10;;;;;;5057944;28;19939;-74
2022/09/19 05:55:40;;;;;;;;;;;30.70;48.50;;;;;;5051590;28;19915;-73
2022/09/19 05:58:08;;;;;;;;;;;30.90;49.80;;;;;;5051016;28;19917;-74
2022/09/19 06:00:35;;;;;;;;;;;30.80;48.20;;;;;;5051692;28;19963;-74
2022/09/19 06:03:03;;;;;;;;;;;30.70;48.60;;;;;;5051332;28;19936;-75
2022/09/19 06:05:34;;;;;;;;;;;30.30;49.00;;;;;;5051457;28;19927;-74
2022/09/19 06:08:01;;;;;;;;;;;30.10;49.20;;;;;;5051126;28;19909;-74
2022/09/19 06:10:27;;;;;;;;;;;30.00;50.60;;;;;;5050644;28;19920;-71
2022/09/19 06:12:54;;;;;;;;;;;30.00;49.00;;;;;;5050601;28;19909;-73
2022/09/19 06:15:21;;;;;;;;;;;29.80;48.60;;;;;;5050885;28;20357;-73
2022/09/19 06:17:57;;;;;;;;;;;29.50;49.20;;;;;;5033171;28;19956;-76
2022/09/19 06:20:24;;;;;;;;;;;29.50;50.80;;;;;;5052311;28;19913;-74
2022/09/19 06:23:01;;;;;;;;;;;29.60;50.10;;;;;;5055281;28;19916;-73
2022/09/19 06:25:29;;;;;;;;;;;29.20;51.10;;;;;;5037770;28;20267;-74
2022/09/19 06:27:56;;;;;;;;;;;29.50;51.00;;;;;;5066642;28;19924;-73
2022/09/19 06:30:23;;;;;;;;;;;29.10;51.00;;;;;;5051170;28;19909;-75
2022/09/19 06:32:52;;;;;;;;;;;29.10;51.80;;;;;;5054553;28;19916;-71
2022/09/19 06:35:20;;;;;;;;;;;29.40;51.30;;;;;;5054193;28;19909;-73
2022/09/19 06:37:47;;;;;;;;;;;29.30;51.00;;;;;;5053831;28;19917;-70
2022/09/19 06:40:17;;;;;;;;;;;29.00;49.60;;;;;;5053661;28;20018;-74
2022/09/19 06:42:47;;;;;;;;;;;28.70;49.30;;;;;;5053111;28;19909;-74
2022/09/19 06:45:14;;;;;;;;;;;27.50;49.90;;;;;;5020485;28;19908;-74
2022/09/19 06:47:41;;;;;;;;;;;26.70;51.50;;;;;;5053688;28;19966;-74
2022/09/19 06:50:10;;;;;;;;;;;26.10;52.10;;;;;;5052371;28;19909;-72
2022/09/19 06:52:36;;;;;;;;;;;25.60;52.20;;;;;;5052637;28;19916;-73
2022/09/19 06:55:03;;;;;;;;;;;25.10;54.10;;;;;;5053022;28;20393;-75
2022/09/19 06:57:30;;;;;;;;;;;24.60;55.00;;;;;;5034583;28;19924;-73
2022/09/19 06:59:56;;;;;;;;;;;23.90;56.60;;;;;;5053453;28;19995;-73
2022/09/19 07:02:28;;;;;;;;;;;23.40;57.10;;;;;;5054234;28;19908;-74
2022/09/19 07:04:55;;;;;;;;;;;23.10;57.90;;;;;;5054383;28;20501;-74
2022/09/19 07:07:22;;;;;;;;;;;22.80;58.90;;;;;;5054648;28;19962;-71
2022/09/19 07:09:48;;;;;;;;;;;22.50;59.30;;;;;;5053985;28;19916;-71
2022/09/19 07:12:15;;;;;;;;;;;22.30;59.90;;;;;;5054064;28;19917;-75
2022/09/19 07:14:49;;;;;;;;;;;22.20;59.60;;;;;;5036141;28;19909;-73
2022/09/19 07:17:24;;;;;;;;;;;22.00;58.90;;;;;;5035955;28;19979;-75
2022/09/19 07:19:51;;;;;;;;;;;21.90;59.00;;;;;;5040276;28;19940;-71
2022/09/19 07:22:22;;;;;;;;;;;21.50;59.80;;;;;;5073871;28;20316;-73
2022/09/19 07:24:54;;;;;;;;;;;21.20;60.70;;;;;;5055973;28;19915;-75
2022/09/19 07:27:22;;;;;;;;;;;21.00;61.40;;;;;;5073707;28;19931;-73
2022/09/19 07:29:49;;;;;;;;;;;20.90;61.90;;;;;;5053267;28;19992;-73
2022/09/19 07:32:16;;;;;;;;;;;20.70;62.30;;;;;;5053007;28;19921;-74
2022/09/19 07:34:43;;;;;;;;;;;20.60;62.40;;;;;;5036400;28;19916;-74
2022/09/19 07:37:10;;;;;;;;;;;20.50;61.90;;;;;;5054086;28;20315;-72
2022/09/19 07:39:36;;;;;;;;;;;20.40;62.10;;;;;;5053661;28;20007;-73
2022/09/19 07:42:03;;;;;;;;;;;20.30;62.40;;;;;;5053670;28;20603;-74
2022/09/19 07:44:30;;;;;;;;;;;20.20;63.50;;;;;;5053407;28;20363;-75
2022/09/19 07:49:41;;;;;;;;;;;19.90;63.80;;;;;;5053363;28;19919;-76
2022/09/19 07:52:08;;;;;;;;;;;19.80;64.20;;;;;;5053477;28;19909;-72
2022/09/19 07:54:34;;;;;;;;;;;19.70;65.10;;;;;;5053840;28;19947;-72
2022/09/19 07:57:01;;;;;;;;;;;19.60;65.90;;;;;;5053687;28;19964;-71
2022/09/19 07:59:28;;;;;;;;;;;19.60;66.30;;;;;;5053073;28;20451;-73
2022/09/19 08:01:54;;;;;;;;;;;19.50;66.70;;;;;;5053411;28;19959;-68
2022/09/19 08:04:21;;;;;;;;;;;19.40;66.30;;;;;;5053039;28;19921;-68
2022/09/19 08:06:48;;;;;;;;;;;19.30;66.90;;;;;;5053448;28;20375;-74
2022/09/19 08:09:14;;;;;;;;;;;19.10;67.50;;;;;;5053137;28;19951;-70
2022/09/19 08:11:44;;;;;;;;;;;19.00;68.70;;;;;;5053115;28;19912;-71
2022/09/19 08:14:11;;;;;;;;;;;19.00;68.90;;;;;;5053412;28;19913;-75
2022/09/19 08:16:37;;;;;;;;;;;18.90;68.60;;;;;;5053336;28;19909;-70
2022/09/19 08:19:04;;;;;;;;;;;18.90;69.40;;;;;;5053016;28;20400;-72
2022/09/19 08:21:31;;;;;;;;;;;18.90;69.60;;;;;;5052760;28;19915;-74
2022/09/19 08:23:58;;;;;;;;;;;18.70;69.70;;;;;;5053119;28;19913;-74
2022/09/19 08:26:25;;;;;;;;;;;18.70;70.20;;;;;;5053248;28;20038;-73
2022/09/19 08:28:51;;;;;;;;;;;18.70;71.10;;;;;;5053330;28;19913;-68
2022/09/19 08:31:18;;;;;;;;;;;18.60;70.90;;;;;;5053191;28;19909;-74
2022/09/19 08:33:47;;;;;;;;;;;18.60;71.00;;;;;;5052851;28;19912;-75
2022/09/19 08:36:14;;;;;;;;;;;18.50;71.60;;;;;;5053156;28;19960;-74
2022/09/19 08:38:41;;;;;;;;;;;18.50;72.00;;;;;;5052614;28;20011;-66
2022/09/19 08:41:26;;;;;;;;;;;18.50;73.20;;;;;;5052676;28;19959;-71
2022/09/19 08:44:11;;;;;;;;;;;18.40;72.20;;;;;;5052463;28;19947;-76
2022/09/19 08:46:42;;;;;;;;;;;18.30;72.90;;;;;;5052247;28;19915;-70
2022/09/19 08:49:16;;;;;;;;;;;18.30;72.90;;;;;;5052758;28;19915;-74
2022/09/19 08:51:42;;;;;;;;;;;18.30;73.70;;;;;;5057507;28;19912;-69
2022/09/19 08:54:14;;;;;;;;;;;18.20;73.40;;;;;;5070716;28;19912;-67
2022/09/19 08:56:42;;;;;;;;;;;18.20;74.70;;;;;;5064447;28;19925;-70
2022/09/19 08:59:12;;;;;;;;;;;18.10;74.20;;;;;;5060775;28;19912;-68
2022/09/19 09:01:39;;;;;;;;;;;18.00;75.50;;;;;;5072378;28;20328;-68
2022/09/19 09:04:15;;;;;;;;;;;18.00;75.90;;;;;;5072063;28;19951;-70
2022/09/19 09:06:41;;;;;;;;;;;17.90;76.20;;;;;;5072563;28;19961;-72
2022/09/19 09:09:20;;;;;;;;;;;17.90;76.50;;;;;;5065939;28;19912;-68
2022/09/19 09:11:59;;;;;;;;;;;17.80;77.00;;;;;;5054414;28;19994;-75
2022/09/19 09:14:29;;;;;;;;;;;17.70;77.60;;;;;;5072378;28;19915;-72
2022/09/19 09:16:58;;;;;;;;;;;17.60;77.60;;;;;;5070989;28;19962;-73
2022/09/19 09:19:31;;;;;;;;;;;17.60;78.20;;;;;;5051987;28;19909;-75
2022/09/19 09:22:05;;;;;;;;;;;17.50;77.60;;;;;;5051976;28;19917;-75
2022/09/19 09:24:35;;;;;;;;;;;17.50;77.90;;;;;;5052156;28;19909;-74
2022/09/19 09:27:04;;;;;;;;;;;17.50;78.00;;;;;;5051935;28;19915;-71
2022/09/19 09:29:36;;;;;;;;;;;17.50;78.00;;;;;;5051614;28;20003;-69
2022/09/19 09:32:02;;;;;;;;;;;17.40;78.40;;;;;;5051876;28;19909;-73
2022/09/19 09:34:40;;;;;;;;;;;17.40;78.50;;;;;;5051842;28;19913;-67
2022/09/19 09:37:11;;;;;;;;;;;17.30;78.60;;;;;;5051898;28;19927;-70
2022/09/19 09:39:59;;;;;;;;;;;17.40;78.50;;;;;;5051430;28;19908;-71
2022/09/19 09:42:33;;;;;;;;;;;17.30;79.00;;;;;;5051804;28;19916;-72
2022/09/19 09:45:14;;;;;;;;;;;17.30;79.50;;;;;;5052717;28;19940;-72
2022/09/19 09:47:43;;;;;;;;;;;17.20;80.00;;;;;;5051812;28;19913;-69
2022/09/19 09:50:19;;;;;;;;;;;17.10;81.00;;;;;;5051773;28;20257;-71
2022/09/19 09:52:55;;;;;;;;;;;17.10;81.60;;;;;;5056900;28;19917;-70
2022/09/19 09:58:16;;;;;;;;;;;17.10;82.00;;;;;;5069470;28;19924;-72
2022/09/19 10:03:49;;;;;;;;;;;16.80;83.30;;;;;;5071147;28;19943;-69
2022/09/19 10:06:33;;;;;;;;;;;16.80;83.80;;;;;;5075214;28;20009;-68
2022/09/19 10:09:05;;;;;;;;;;;16.70;84.30;;;;;;5055459;28;19913;-69
2022/09/19 10:11:41;;;;;;;;;;;16.60;84.50;;;;;;5055876;28;19998;-70
2022/09/19 10:14:18;;;;;;;;;;;16.60;85.10;;;;;;5055365;28;19909;-70
2022/09/19 10:16:46;;;;;;;;;;;16.50;85.40;;;;;;5056309;28;19928;-66
2022/09/19 10:19:31;;;;;;;;;;;16.50;86.10;;;;;;5055148;28;19916;-68
2022/09/19 10:21:57;;;;;;;;;;;16.40;86.00;;;;;;5055261;28;19905;-69
2022/09/19 10:24:42;;;;;;;;;;;16.40;86.70;;;;;;5055306;28;19999;-70
2022/09/19 10:27:12;;;;;;;;;;;16.30;87.10;;;;;;5059678;28;19913;-72
2022/09/19 10:29:58;;;;;;;;;;;16.30;87.30;;;;;;5054991;28;20428;-68
2022/09/19 10:32:25;;;;;;;;;;;16.20;87.40;;;;;;5065627;28;20015;-73
2022/09/19 10:34:52;;;;;;;;;;;16.20;88.20;;;;;;5063588;28;19913;-70
2022/09/19 10:37:21;;;;;;;;;;;16.10;88.10;;;;;;5061533;28;20348;-68
2022/09/19 10:39:48;;;;;;;;;;;16.00;89.00;;;;;;5062369;28;20361;-73
2022/09/19 10:42:37;;;;;;;;;;;16.00;89.20;;;;;;5063866;28;19931;-70
2022/09/19 10:45:33;;;;;;;;;;;15.90;89.30;;;;;;5062057;28;19916;-74
2022/09/19 10:48:10;;;;;;;;;;;15.90;90.00;;;;;;5047194;28;19916;-72
2022/09/19 10:50:47;;;;;;;;;;;16.00;90.10;;;;;;5062840;28;19974;-72
2022/09/19 10:53:19;;;;;;;;;;;15.90;90.20;;;;;;5054088;28;19908;-70
2022/09/19 10:55:47;;;;;;;;;;;15.90;90.30;;;;;;5054355;28;19947;-70
2022/09/19 10:58:16;;;;;;;;;;;15.90;90.40;;;;;;5054156;28;19917;-72
2022/09/19 11:00:55;;;;;;;;;;;15.80;90.40;;;;;;5059153;28;19970;-68
2022/09/19 11:03:26;;;;;;;;;;;15.80;90.40;;;;;;5060888;28;19913;-67
2022/09/19 11:06:10;;;;;;;;;;;15.70;90.50;;;;;;5061881;28;19917;-69
2022/09/19 11:08:44;;;;;;;;;;;15.70;90.60;;;;;;5063878;28;19908;-71
2022/09/19 11:11:23;;;;;;;;;;;15.70;90.70;;;;;;5063623;28;20249;-71
2022/09/19 11:14:07;;;;;;;;;;;15.70;90.80;;;;;;5058707;28;19919;-72
2022/09/19 11:17:02;;;;;;;;;;;15.60;91.00;;;;;;5058715;28;20373;-72
2022/09/19 11:19:46;;;;;;;;;;;15.60;91.30;;;;;;5035339;28;19917;-71
2022/09/19 11:22:24;;;;;;;;;;;15.50;91.50;;;;;;5063724;28;19909;-73
2022/09/19 11:24:58;;;;;;;;;;;15.50;91.50;;;;;;5072260;28;19919;-72
2022/09/19 11:27:45;;;;;;;;;;;15.50;91.60;;;;;;5073161;28;19919;-75
2022/09/19 11:30:13;;;;;;;;;;;15.40;91.60;;;;;;5036191;28;19909;-74
2022/09/19 11:32:49;;;;;;;;;;;15.50;91.70;;;;;;5056319;28;19919;-71
2022/09/19 11:35:28;;;;;;;;;;;15.40;92.10;;;;;;5073584;28;19912;-69
2022/09/19 11:38:03;;;;;;;;;;;15.40;91.80;;;;;;5058997;28;20019;-69
2022/09/19 11:40:36;;;;;;;;;;;15.40;91.70;;;;;;5062425;28;19975;-73
2022/09/19 11:43:32;;;;;;;;;;;15.40;91.30;;;;;;5055730;28;19981;-73
2022/09/19 11:46:24;;;;;;;;;;;15.50;91.50;;;;;;5037867;28;19970;-70
2022/09/19 11:48:58;;;;;;;;;;;15.50;91.50;;;;;;5025304;28;19920;-70
2022/09/19 11:51:26;;;;;;;;;;;15.50;91.30;;;;;;5073564;28;20058;-71
2022/09/19 11:53:56;;;;;;;;;;;15.50;91.30;;;;;;5073138;28;19958;-72
2022/09/19 11:56:49;;;;;;;;;;;15.50;91.50;;;;;;5055981;28;19986;-73
2022/09/19 11:59:26;;;;;;;;;;;15.50;91.30;;;;;;5026455;28;19933;-74
2022/09/19 12:02:33;;;;;;;;;;;15.50;90.20;;;;;;5052492;28;19909;-73
2022/09/19 12:05:19;;;;;;;;;;;15.50;89.10;;;;;;4978290;28;19933;-74
2022/09/19 12:07:49;;;;;;;;;;;15.50;89.50;;;;;;4974344;28;19964;-69
2022/09/19 12:10:15;;;;;;;;;;;15.50;89.80;;;;;;5042370;28;19924;-72
2022/09/19 12:12:45;;;;;;;;;;;15.50;89.20;;;;;;5053099;28;19909;-70
2022/09/19 12:15:22;;;;;;;;;;;15.50;89.00;;;;;;5053086;28;20253;-74
2022/09/19 12:17:59;;;;;;;;;;;15.50;88.40;;;;;;5052247;28;19924;-75
2022/09/19 12:20:30;;;;;;;;;;;15.40;87.40;;;;;;5052440;28;19971;-73
2022/09/19 12:24:52;;;;;;;;;;;15.40;86.70;;;;;;5052709;28;19920;-74
2022/09/19 12:25:47;;;;;;;;;;;15.30;84.30;;;;;;5052453;28;19909;-75
2022/09/19 12:28:15;;;;;;;;;;;15.30;81.40;;;;;;5063130;28;19912;-73
2022/09/19 12:30:45;;;;;;;;;;;15.30;82.00;;;;;;5052632;28;19909;-71
2022/09/19 12:33:31;;;;;;;;;;;15.30;83.30;;;;;;5053164;28;20383;-73
2022/09/19 12:36:04;;;;;;;;;;;15.30;82.00;;;;;;5066815;28;20003;-73
2022/09/19 12:38:40;;;;;;;;;;;15.30;81.70;;;;;;5063779;28;20003;-67
2022/09/19 12:41:12;;;;;;;;;;;15.30;80.20;;;;;;5052410;28;19913;-67
2022/09/19 12:43:42;;;;;;;;;;;15.20;79.10;;;;;;5052748;28;19917;-70
2022/09/19 12:46:12;;;;;;;;;;;15.20;80.30;;;;;;5052474;28;20038;-70
2022/09/19 12:48:47;;;;;;;;;;;15.20;80.30;;;;;;5061420;28;19962;-76
2022/09/19 12:51:21;;;;;;;;;;;15.10;79.90;;;;;;5052374;28;19917;-72
2022/09/19 12:53:48;;;;;;;;;;;15.10;79.20;;;;;;5053165;28;19909;-74
2022/09/19 12:56:20;;;;;;;;;;;15.10;78.90;;;;;;5072103;28;20053;-72
2022/09/19 12:58:54;;;;;;;;;;;15.10;79.30;;;;;;5066673;28;19928;-75
2022/09/19 13:01:26;;;;;;;;;;;15.10;79.00;;;;;;5070932;28;19912;-73
2022/09/19 13:04:13;;;;;;;;;;;15.00;80.00;;;;;;5071896;28;20440;-72
2022/09/19 13:06:42;;;;;;;;;;;14.90;78.90;;;;;;5021719;28;19999;-70
2022/09/19 13:09:14;;;;;;;;;;;14.90;79.10;;;;;;5057873;28;19908;-69
2022/09/19 13:11:43;;;;;;;;;;;14.90;79.40;;;;;;5063114;28;19913;-68
2022/09/19 13:14:11;;;;;;;;;;;14.80;79.50;;;;;;5071600;28;19916;-72
2022/09/19 13:23:30;;;;;;;;;;;14.80;79.80;;;;;;5072214;28;19915;-72
2022/09/19 13:25:27;;;;;;;;;;;14.60;79.70;;;;;;5052015;28;20330;-73
2022/09/19 13:28:11;;;;;;;;;;;14.70;79.50;;;;;;5051390;28;19909;-72
2022/09/19 13:30:48;;;;;;;;;;;14.60;80.20;;;;;;5050936;28;19909;-75
2022/09/19 13:33:44;;;;;;;;;;;14.50;79.60;;;;;;5062884;28;19912;-69
2022/09/19 13:36:31;;;;;;;;;;;14.40;79.60;;;;;;5069420;28;19908;-72
2022/09/19 13:39:01;;;;;;;;;;;14.40;79.70;;;;;;5042813;28;20373;-71
2022/09/19 13:41:47;;;;;;;;;;;14.40;79.80;;;;;;5051654;28;19970;-73
2022/09/19 13:44:28;;;;;;;;;;;14.40;78.90;;;;;;5045089;28;19912;-72
2022/09/19 13:46:58;;;;;;;;;;;14.30;79.30;;;;;;5071940;28;20020;-69
2022/09/19 13:49:33;;;;;;;;;;;14.30;78.00;;;;;;5055547;28;19917;-70
2022/09/19 13:52:10;;;;;;;;;;;14.30;79.00;;;;;;5051757;28;19955;-72
2022/09/19 13:54:57;;;;;;;;;;;14.30;78.80;;;;;;5054939;28;19952;-75
2022/09/19 13:57:29;;;;;;;;;;;14.30;78.30;;;;;;5010260;28;19947;-75
2022/09/19 13:59:58;;;;;;;;;;;14.30;78.70;;;;;;5051272;28;20439;-74
2022/09/19 14:02:38;;;;;;;;;;;14.30;78.70;;;;;;5051214;28;19942;-75
2022/09/19 14:05:08;;;;;;;;;;;14.30;78.40;;;;;;5051051;28;20431;-70
2022/09/19 14:07:38;;;;;;;;;;;14.30;78.00;;;;;;5062251;28;19920;-74
2022/09/19 14:10:25;;;;;;;;;;;14.30;79.00;;;;;;5051027;28;19912;-72
2022/09/19 14:12:54;;;;;;;;;;;14.30;78.40;;;;;;5040529;28;19931;-73
2022/09/19 14:15:40;;;;;;;;;;;14.20;78.80;;;;;;5051176;28;19960;-72
2022/09/19 14:18:13;;;;;;;;;;;14.20;79.30;;;;;;5051309;28;19947;-70
2022/09/19 14:20:48;;;;;;;;;;;14.20;79.00;;;;;;5033287;28;20323;-73
2022/09/19 14:23:16;;;;;;;;;;;14.20;79.40;;;;;;5051448;28;20273;-72
2022/09/19 14:26:00;;;;;;;;;;;14.10;80.00;;;;;;5051606;28;19909;-72
2022/09/19 14:28:33;;;;;;;;;;;14.00;80.70;;;;;;5051228;28;19909;-74
2022/09/19 14:31:04;;;;;;;;;;;14.00;81.70;;;;;;5051416;28;19940;-74
2022/09/19 14:33:42;;;;;;;;;;;13.90;81.50;;;;;;5051349;28;20277;-72
2022/09/19 14:36:21;;;;;;;;;;;13.80;81.90;;;;;;5051128;28;20383;-76
2022/09/19 14:39:00;;;;;;;;;;;13.80;81.80;;;;;;5051091;28;20439;-72
2022/09/19 14:41:28;;;;;;;;;;;13.70;81.60;;;;;;5051802;28;19967;-75
2022/09/19 14:44:13;;;;;;;;;;;13.70;82.20;;;;;;5065850;28;19912;-75
2022/09/19 14:47:06;;;;;;;;;;;13.80;82.00;;;;;;5074960;28;19915;-73
2022/09/19 14:49:47;;;;;;;;;;;13.70;83.10;;;;;;5052773;28;19909;-73
2022/09/19 14:52:19;;;;;;;;;;;13.70;81.00;;;;;;5054870;28;19915;-74
2022/09/19 14:54:47;;;;;;;;;;;13.70;81.60;;;;;;5055695;28;20373;-74
2022/09/19 14:57:15;;;;;;;;;;;13.70;81.10;;;;;;5074637;28;19917;-72
2022/09/19 14:59:42;;;;;;;;;;;13.60;80.30;;;;;;5055605;28;20333;-72
2022/09/19 15:02:35;;;;;;;;;;;13.70;80.30;;;;;;5053989;28;19916;-74
2022/09/19 15:05:14;;;;;;;;;;;13.70;81.30;;;;;;5049795;28;19921;-70
2022/09/19 15:07:42;;;;;;;;;;;13.70;80.80;;;;;;5060360;28;19916;-68
2022/09/19 15:10:30;;;;;;;;;;;13.70;82.30;;;;;;5054203;28;19917;-66